createdAt,value
2018-01-16T00:00:27.435Z,96.22
2018-01-16T00:01:27.442Z,96.12
2018-01-16T00:02:27.409Z,96.12
2018-01-16T00:03:27.427Z,96.22
2018-01-16T00:04:27.389Z,96.79
2018-01-16T00:05:27.411Z,96.98
2018-01-16T00:06:27.382Z,96.50
2018-01-16T00:07:27.378Z,96.60
2018-01-16T00:08:27.385Z,96.89
2018-01-16T00:09:27.360Z,96.31
2018-01-16T00:10:27.348Z,96.98
2018-01-16T00:11:27.336Z,96.79
2018-01-16T00:12:27.336Z,97.17
2018-01-16T00:13:27.332Z,97.36
2018-01-16T00:14:27.340Z,97.74
2018-01-16T00:15:27.328Z,97.27
2018-01-16T00:16:27.306Z,97.74
2018-01-16T00:17:27.297Z,97.55
2018-01-16T00:18:27.285Z,97.74
2018-01-16T00:19:27.281Z,97.83
2018-01-16T00:20:27.265Z,97.36
2018-01-16T00:21:27.277Z,97.55
2018-01-16T00:22:27.297Z,97.55
2018-01-16T00:23:27.252Z,97.64
2018-01-16T00:24:27.236Z,97.83
2018-01-16T00:25:27.248Z,97.93
2018-01-16T00:26:27.218Z,97.93
2018-01-16T00:27:27.226Z,97.45
2018-01-16T00:28:27.206Z,97.55
2018-01-16T00:29:27.213Z,98.03
2018-01-16T00:30:27.211Z,98.03
2018-01-16T00:31:27.185Z,98.12
2018-01-16T00:32:27.184Z,97.93
2018-01-16T00:33:27.173Z,97.93
2018-01-16T00:34:27.165Z,98.12
2018-01-16T00:35:27.156Z,98.69
2018-01-16T00:36:27.150Z,98.22
2018-01-16T00:37:27.161Z,98.79
2018-01-16T00:38:27.143Z,98.79
2018-01-16T00:39:27.122Z,98.88
2018-01-16T00:40:27.118Z,98.26
2018-01-16T00:41:27.104Z,98.36
2018-01-16T00:42:27.120Z,97.88
2018-01-16T00:43:27.098Z,97.88
2018-01-16T00:44:27.136Z,98.07
2018-01-16T00:45:27.192Z,97.60
2018-01-16T00:46:27.101Z,97.60
2018-01-16T00:47:27.107Z,97.69
2018-01-16T00:48:27.075Z,97.12
2018-01-16T00:49:27.070Z,96.74
2018-01-16T00:50:27.094Z,96.45
2018-01-16T00:51:27.050Z,96.84
2018-01-16T00:52:27.035Z,96.55
2018-01-16T00:53:27.112Z,96.55
2018-01-16T00:54:27.075Z,96.93
2018-01-16T00:55:27.036Z,96.65
2018-01-16T00:56:27.010Z,96.55
2018-01-16T00:57:27.050Z,97.03
2018-01-16T00:58:27.057Z,96.45
2018-01-16T00:59:26.996Z,96.93
2018-01-16T01:00:27.011Z,96.26
2018-01-16T01:01:26.986Z,96.17
2018-01-16T01:02:26.958Z,96.84
2018-01-16T01:03:26.963Z,96.17
2018-01-16T01:04:26.953Z,95.51
2018-01-16T01:05:26.945Z,95.70
2018-01-16T01:06:26.983Z,95.89
2018-01-16T01:07:26.918Z,96.55
2018-01-16T01:08:26.915Z,95.70
2018-01-16T01:09:26.915Z,95.98
2018-01-16T01:10:26.947Z,96.17
2018-01-16T01:11:26.944Z,95.22
2018-01-16T01:12:26.871Z,94.74
2018-01-16T01:13:26.882Z,94.74
2018-01-16T01:14:26.894Z,95.22
2018-01-16T01:15:26.863Z,95.32
2018-01-16T01:16:26.862Z,94.89
2018-01-16T01:17:26.879Z,95.22
2018-01-16T01:18:26.838Z,94.70
2018-01-16T01:19:26.867Z,94.46
2018-01-16T01:20:26.818Z,94.08
2018-01-16T01:21:26.883Z,93.79
2018-01-16T01:22:26.813Z,93.18
2018-01-16T01:23:26.836Z,93.04
2018-01-16T01:24:26.791Z,92.71
2018-01-16T01:25:26.773Z,92.13
2018-01-16T01:26:26.766Z,92.13
2018-01-16T01:27:29.319Z,92.42
2018-01-16T01:28:26.769Z,92.23
2018-01-16T01:29:26.748Z,92.23
2018-01-16T01:30:26.770Z,92.32
2018-01-16T01:31:27.289Z,92.13
2018-01-16T01:32:27.344Z,92.32
2018-01-16T01:33:26.693Z,92.32
2018-01-16T01:34:27.284Z,92.71
2018-01-16T01:35:26.755Z,92.23
2018-01-16T01:36:26.706Z,92.23
2018-01-16T01:37:26.673Z,92.51
2018-01-16T01:38:26.668Z,91.75
2018-01-16T01:39:27.291Z,92.32
2018-01-16T01:40:26.752Z,92.23
2018-01-16T01:41:26.645Z,92.04
2018-01-16T01:42:26.620Z,92.13
2018-01-16T01:43:26.647Z,91.75
2018-01-16T01:44:26.636Z,92.13
2018-01-16T01:45:26.608Z,92.42
2018-01-16T01:46:26.594Z,92.13
2018-01-16T01:47:26.601Z,92.23
2018-01-16T01:48:26.576Z,92.13
2018-01-16T01:49:26.603Z,92.32
2018-01-16T01:50:26.569Z,91.99
2018-01-16T01:51:26.544Z,91.99
2018-01-16T01:52:26.561Z,91.89
2018-01-16T01:53:26.607Z,92.46
2018-01-16T01:54:26.554Z,92.37
2018-01-16T01:55:26.536Z,92.61
2018-01-16T01:56:26.550Z,92.46
2018-01-16T01:57:26.655Z,92.46
2018-01-16T01:58:26.612Z,92.71
2018-01-16T01:59:26.617Z,92.13
2018-01-16T02:00:26.517Z,92.37
2018-01-16T02:01:26.522Z,91.99
2018-01-16T02:02:26.554Z,92.46
2018-01-16T02:03:26.519Z,92.18
2018-01-16T02:04:26.533Z,92.56
2018-01-16T02:05:26.526Z,92.75
2018-01-16T02:06:26.447Z,92.37
2018-01-16T02:07:26.432Z,92.23
2018-01-16T02:08:26.441Z,92.94
2018-01-16T02:09:26.492Z,92.94
2018-01-16T02:10:26.601Z,93.13
2018-01-16T02:11:26.409Z,92.71
2018-01-16T02:12:26.421Z,92.13
2018-01-16T02:13:26.455Z,91.38
2018-01-16T02:14:26.370Z,91.56
2018-01-16T02:15:26.375Z,92.23
2018-01-16T02:16:26.374Z,91.94
2018-01-16T02:17:26.363Z,92.42
2018-01-16T02:18:26.323Z,92.23
2018-01-16T02:19:26.314Z,92.23
2018-01-16T02:20:26.313Z,92.32
2018-01-16T02:21:26.408Z,92.32
2018-01-16T02:22:26.493Z,92.32
2018-01-16T02:23:26.324Z,92.42
2018-01-16T02:24:26.377Z,92.90
2018-01-16T02:24:38.460Z,92.90
2018-01-16T02:26:26.830Z,92.90
2018-01-16T02:27:26.289Z,92.71
2018-01-16T02:28:26.434Z,92.71
2018-01-16T02:29:26.302Z,92.71
2018-01-16T02:30:26.356Z,92.23
2018-01-16T02:31:28.986Z,92.99
2018-01-16T02:32:26.321Z,92.99
2018-01-16T02:33:26.909Z,93.75
2018-01-16T02:34:26.490Z,93.65
2018-01-16T02:35:26.460Z,93.27
2018-01-16T02:36:26.501Z,93.94
2018-01-16T02:37:26.725Z,93.75
2018-01-16T02:38:26.245Z,93.94
2018-01-16T02:39:26.586Z,94.13
2018-01-16T02:40:26.693Z,93.94
2018-01-16T02:41:26.182Z,94.23
2018-01-16T02:42:26.124Z,93.94
2018-01-16T02:43:26.175Z,93.84
2018-01-16T02:44:28.852Z,94.79
2018-01-16T02:45:27.454Z,93.94
2018-01-16T02:46:26.202Z,94.23
2018-01-16T02:47:26.111Z,94.32
2018-01-16T02:48:26.111Z,94.60
2018-01-16T02:49:26.168Z,94.23
2018-01-16T02:50:26.316Z,94.03
2018-01-16T02:51:26.129Z,94.03
2018-01-16T02:52:26.106Z,94.03
2018-01-16T02:53:26.084Z,94.32
2018-01-16T02:54:26.154Z,93.84
2018-01-16T02:55:26.135Z,94.23
2018-01-16T02:56:26.164Z,94.51
2018-01-16T02:57:26.083Z,94.51
2018-01-16T02:58:26.961Z,94.23
2018-01-16T02:59:26.003Z,94.60
2018-01-16T03:00:26.010Z,94.03
2018-01-16T03:01:25.985Z,94.03
2018-01-16T03:02:25.977Z,93.37
2018-01-16T03:03:26.019Z,93.37
2018-01-16T03:04:26.138Z,93.46
2018-01-16T03:05:26.824Z,94.18
2018-01-16T03:06:25.989Z,94.23
2018-01-16T03:07:25.939Z,93.32
2018-01-16T03:08:25.986Z,93.60
2018-01-16T03:09:25.918Z,94.08
2018-01-16T03:10:25.909Z,93.32
2018-01-16T03:11:25.907Z,93.80
2018-01-16T03:12:25.894Z,93.99
2018-01-16T03:13:25.874Z,94.08
2018-01-16T03:14:25.849Z,94.46
2018-01-16T03:15:25.868Z,94.46
2018-01-16T03:16:25.836Z,93.89
2018-01-16T03:17:25.886Z,94.18
2018-01-16T03:18:25.837Z,93.89
2018-01-16T03:19:25.813Z,93.32
2018-01-16T03:20:25.801Z,93.23
2018-01-16T03:21:25.818Z,93.89
2018-01-16T03:22:25.776Z,93.70
2018-01-16T03:23:25.776Z,93.41
2018-01-16T03:24:25.768Z,93.60
2018-01-16T03:25:25.753Z,93.75
2018-01-16T03:26:25.744Z,94.03
2018-01-16T03:27:25.737Z,94.08
2018-01-16T03:28:25.735Z,93.99
2018-01-16T03:29:25.724Z,94.56
2018-01-16T03:30:25.714Z,93.94
2018-01-16T03:31:25.701Z,94.18
2018-01-16T03:32:25.724Z,94.70
2018-01-16T03:33:25.695Z,94.37
2018-01-16T03:34:25.701Z,94.51
2018-01-16T03:35:25.703Z,94.56
2018-01-16T03:36:25.681Z,94.51
2018-01-16T03:37:25.666Z,94.51
2018-01-16T03:38:25.643Z,94.79
2018-01-16T03:39:25.634Z,94.46
2018-01-16T03:40:25.629Z,94.74
2018-01-16T03:41:25.641Z,94.79
2018-01-16T03:42:25.648Z,94.74
2018-01-16T03:43:25.624Z,94.27
2018-01-16T03:44:25.603Z,95.46
2018-01-16T03:45:25.627Z,95.03
2018-01-16T03:46:25.596Z,94.37
2018-01-16T03:47:25.567Z,94.74
2018-01-16T03:48:25.601Z,94.32
2018-01-16T03:49:25.578Z,94.70
2018-01-16T03:50:25.575Z,94.74
2018-01-16T03:50:37.586Z,94.32
2018-01-16T03:52:25.568Z,94.32
2018-01-16T03:53:25.701Z,94.60
2018-01-16T03:54:26.555Z,94.32
2018-01-16T03:55:25.661Z,94.70
2018-01-16T03:58:42.383Z,94.32
2018-01-16T03:59:41.557Z,94.42
2018-01-16T04:00:41.086Z,94.23
2018-01-16T04:01:40.907Z,94.03
2018-01-16T04:02:43.044Z,94.23
2018-01-16T04:03:42.790Z,94.03
2018-01-16T04:04:55.405Z,94.23
2018-01-16T04:05:45.773Z,93.75
2018-01-16T04:06:45.818Z,93.46
2018-01-16T04:07:45.746Z,93.37
2018-01-16T04:08:45.729Z,93.27
2018-01-16T04:09:46.508Z,93.75
2018-01-16T04:10:45.689Z,93.65
2018-01-16T04:11:45.687Z,93.08
2018-01-16T04:12:45.681Z,93.56
2018-01-16T04:13:45.700Z,92.71
2018-01-16T04:14:45.665Z,93.18
2018-01-16T04:15:45.640Z,93.08
2018-01-16T04:16:45.635Z,92.71
2018-01-16T04:17:45.619Z,92.61
2018-01-16T04:18:45.649Z,92.42
2018-01-16T04:19:45.675Z,91.94
2018-01-16T04:20:45.730Z,92.23
2018-01-16T04:21:45.566Z,92.51
2018-01-16T04:22:45.598Z,92.66
2018-01-16T04:23:45.644Z,92.71
2018-01-16T04:24:45.559Z,92.94
2018-01-16T04:25:45.553Z,93.56
2018-01-16T04:26:45.566Z,92.71
2018-01-16T04:27:45.555Z,92.99
2018-01-16T04:28:45.536Z,92.99
2018-01-16T04:29:45.541Z,93.56
2018-01-16T04:30:45.525Z,93.27
2018-01-16T04:31:45.497Z,93.75
2018-01-16T04:32:45.509Z,94.13
2018-01-16T04:33:45.490Z,93.94
2018-01-16T04:34:45.480Z,94.03
2018-01-16T04:35:45.495Z,94.03
2018-01-16T04:36:45.477Z,94.03
2018-01-16T04:37:45.456Z,94.03
2018-01-16T04:38:45.462Z,93.94
2018-01-16T04:39:45.445Z,94.03
2018-01-16T04:40:45.415Z,94.89
2018-01-16T04:41:45.419Z,94.32
2018-01-16T04:42:45.435Z,94.70
2018-01-16T04:43:45.408Z,94.42
2018-01-16T04:44:45.377Z,94.13
2018-01-16T04:45:45.392Z,94.70
2018-01-16T04:46:45.377Z,94.70
2018-01-16T04:47:45.352Z,94.60
2018-01-16T04:48:45.372Z,94.60
2018-01-16T04:49:45.368Z,94.60
2018-01-16T04:50:45.326Z,95.27
2018-01-16T04:51:45.353Z,95.27
2018-01-16T04:52:45.341Z,95.17
2018-01-16T04:53:45.373Z,95.55
2018-01-16T04:54:45.316Z,95.65
2018-01-16T04:55:45.291Z,95.46
2018-01-16T04:56:45.331Z,95.84
2018-01-16T04:57:45.304Z,95.94
2018-01-16T04:58:45.281Z,96.60
2018-01-16T04:59:45.247Z,96.69
2018-01-16T05:00:45.297Z,96.60
2018-01-16T05:01:45.247Z,96.41
2018-01-16T05:02:45.263Z,96.12
2018-01-16T05:03:45.381Z,96.31
2018-01-16T05:04:45.264Z,96.50
2018-01-16T05:05:45.263Z,96.60
2018-01-16T05:06:45.212Z,96.79
2018-01-16T05:07:45.195Z,97.02
2018-01-16T05:08:45.184Z,97.45
2018-01-16T05:09:45.174Z,97.60
2018-01-16T05:10:45.181Z,97.69
2018-01-16T05:11:45.779Z,97.83
2018-01-16T05:12:45.188Z,98.54
2018-01-16T05:13:45.144Z,98.16
2018-01-16T05:14:45.142Z,98.26
2018-01-16T05:15:45.796Z,98.16
2018-01-16T05:16:45.105Z,98.35
2018-01-16T05:17:45.124Z,98.83
2018-01-16T05:18:45.098Z,98.54
2018-01-16T05:19:45.813Z,98.73
2018-01-16T05:20:45.147Z,98.73
2018-01-16T05:21:45.093Z,98.73
2018-01-16T05:22:45.058Z,98.35
2018-01-16T05:23:45.059Z,98.83
2018-01-16T05:24:45.080Z,98.45
2018-01-16T05:25:45.036Z,98.35
2018-01-16T05:26:45.025Z,98.54
2018-01-16T05:27:45.016Z,99.11
2018-01-16T05:28:45.012Z,99.68
2018-01-16T05:29:45.023Z,99.11
2018-01-16T05:30:44.986Z,99.68
2018-01-16T05:31:44.987Z,99.68
2018-01-16T05:32:44.993Z,99.68
2018-01-16T05:33:45.022Z,99.49
2018-01-16T05:34:44.953Z,99.58
2018-01-16T05:35:44.980Z,99.58
2018-01-16T05:36:44.939Z,99.40
2018-01-16T05:37:44.929Z,99.30
2018-01-16T05:38:44.968Z,99.58
2018-01-16T05:39:44.945Z,99.58
2018-01-16T05:40:44.916Z,99.58
2018-01-16T05:41:44.894Z,99.58
2018-01-16T05:42:44.964Z,99.68
2018-01-16T05:43:44.994Z,99.30
2018-01-16T05:44:44.894Z,99.02
2018-01-16T05:45:45.006Z,99.49
2018-01-16T05:46:44.932Z,99.49
2018-01-16T05:47:44.840Z,99.30
2018-01-16T05:48:44.920Z,99.77
2018-01-16T05:49:44.842Z,99.68
2018-01-16T05:50:44.870Z,99.58
2018-01-16T05:51:44.850Z,99.40
2018-01-16T05:52:44.829Z,99.99
2018-01-16T05:53:44.797Z,99.99
2018-01-16T05:54:44.793Z,99.99
2018-01-16T05:55:45.559Z,99.99
2018-01-16T05:56:45.334Z,99.97
2018-01-16T05:57:44.842Z,99.30
2018-01-16T05:58:44.802Z,99.49
2018-01-16T05:59:44.876Z,98.92
2018-01-16T06:00:45.154Z,99.21
2018-01-16T06:01:44.747Z,99.99
2018-01-16T06:02:44.715Z,99.02
2018-01-16T06:03:44.744Z,98.26
2018-01-16T06:04:44.717Z,99.44
2018-01-16T06:05:44.740Z,98.69
2018-01-16T06:06:45.015Z,97.97
2018-01-16T06:07:44.782Z,97.64
2018-01-16T06:08:44.800Z,97.45
2018-01-16T06:09:44.940Z,98.59
2018-01-16T06:10:44.762Z,97.36
2018-01-16T06:12:02.603Z,97.83
2018-01-16T06:12:56.974Z,97.83
2018-01-16T06:13:53.119Z,97.83
2018-01-16T06:14:54.813Z,97.27
2018-01-16T06:15:53.066Z,96.98
2018-01-16T06:17:01.114Z,96.98
2018-01-16T06:17:53.064Z,97.07
2018-01-16T06:18:53.048Z,97.45
2018-01-16T06:19:53.036Z,97.74
2018-01-16T06:20:53.047Z,97.74
2018-01-16T06:21:53.049Z,97.64
2018-01-16T06:22:53.019Z,97.45
2018-01-16T06:23:53.032Z,97.27
2018-01-16T06:24:54.845Z,97.07
2018-01-16T06:25:53.137Z,97.55
2018-01-16T06:26:53.045Z,97.55
2018-01-16T06:27:52.970Z,97.17
2018-01-16T06:28:53.000Z,97.74
2018-01-16T06:29:53.019Z,97.45
2018-01-16T06:30:53.077Z,97.55
2018-01-16T06:31:52.969Z,97.45
2018-01-16T06:32:55.705Z,97.64
2018-01-16T06:33:56.319Z,97.60
2018-01-16T06:37:57.535Z,98.31
2018-01-16T06:38:58.203Z,97.97
2018-01-16T06:41:41.750Z,97.41
2018-01-16T06:42:43.428Z,97.78
2018-01-16T06:45:25.087Z,97.45
2018-01-16T06:46:25.046Z,97.60
2018-01-16T06:49:29.166Z,97.69
2018-01-16T06:50:20.045Z,97.60
2018-01-16T06:53:04.986Z,97.36
2018-01-16T06:54:05.178Z,96.98
2018-01-16T06:56:47.512Z,96.79
2018-01-16T06:59:51.669Z,96.50
2018-01-16T07:00:51.185Z,96.69
2018-01-16T07:03:35.190Z,95.65
2018-01-16T07:04:35.210Z,95.75
2018-01-16T07:07:18.689Z,95.27
2018-01-16T07:08:18.608Z,95.65
2018-01-16T07:09:18.529Z,95.17
2018-01-16T07:10:19.386Z,95.27
2018-01-16T07:11:18.929Z,95.27
2018-01-16T07:12:18.954Z,95.17
2018-01-16T07:13:18.449Z,94.60
2018-01-16T07:14:18.447Z,94.60
2018-01-16T07:15:18.456Z,95.27
2018-01-16T07:16:18.451Z,95.08
2018-01-16T07:17:18.417Z,94.60
2018-01-16T07:18:18.416Z,94.23
2018-01-16T07:19:18.445Z,93.94
2018-01-16T07:20:18.401Z,92.99
2018-01-16T07:21:18.386Z,92.99
2018-01-16T07:22:18.376Z,92.99
2018-01-16T07:23:18.360Z,92.32
2018-01-16T07:24:18.376Z,92.71
2018-01-16T07:25:18.346Z,92.27
2018-01-16T07:26:18.370Z,92.46
2018-01-16T07:27:18.338Z,91.99
2018-01-16T07:28:18.342Z,91.52
2018-01-16T07:29:18.351Z,91.23
2018-01-16T07:30:18.304Z,91.04
2018-01-16T07:31:18.310Z,90.19
2018-01-16T07:32:18.309Z,90.47
2018-01-16T07:33:18.284Z,91.33
2018-01-16T07:34:18.278Z,90.56
2018-01-16T07:35:18.304Z,90.75
2018-01-16T07:36:18.263Z,91.13
2018-01-16T07:37:18.276Z,91.23
2018-01-16T07:38:18.248Z,90.99
2018-01-16T07:39:18.235Z,91.23
2018-01-16T07:40:18.224Z,91.13
2018-01-16T07:41:18.226Z,91.19
2018-01-16T07:42:18.205Z,91.19
2018-01-16T07:43:18.206Z,91.13
2018-01-16T07:44:18.196Z,91.38
2018-01-16T07:45:18.220Z,91.66
2018-01-16T07:46:18.184Z,92.04
2018-01-16T07:47:18.167Z,92.13
2018-01-16T07:48:18.182Z,92.32
2018-01-16T07:49:18.155Z,92.51
2018-01-16T07:50:18.138Z,92.23
2018-01-16T07:51:19.076Z,92.32
2018-01-16T07:52:18.129Z,92.32
2018-01-16T07:53:18.137Z,92.71
2018-01-16T07:54:18.110Z,92.23
2018-01-16T07:55:18.096Z,92.23
2018-01-16T07:56:18.091Z,91.66
2018-01-16T07:57:18.146Z,91.94
2018-01-16T07:58:18.074Z,92.23
2018-01-16T07:59:18.070Z,92.32
2018-01-16T08:00:18.060Z,92.51
2018-01-16T08:01:18.057Z,92.61
2018-01-16T08:02:18.603Z,92.71
2018-01-16T08:03:18.024Z,92.42
2018-01-16T08:04:18.018Z,92.23
2018-01-16T08:05:18.016Z,92.32
2018-01-16T08:06:18.014Z,92.51
2018-01-16T08:07:18.028Z,92.51
2018-01-16T08:08:18.002Z,92.32
2018-01-16T08:09:17.977Z,92.51
2018-01-16T08:10:17.968Z,92.51
2018-01-16T08:11:17.958Z,92.90
2018-01-16T08:12:17.966Z,93.27
2018-01-16T08:13:17.942Z,92.80
2018-01-16T08:14:17.970Z,92.90
2018-01-16T08:15:17.942Z,93.37
2018-01-16T08:16:17.990Z,93.18
2018-01-16T08:17:17.922Z,93.08
2018-01-16T08:18:18.609Z,93.08
2018-01-16T08:19:17.907Z,93.08
2018-01-16T08:20:17.887Z,93.27
2018-01-16T08:21:17.915Z,92.80
2018-01-16T08:22:17.891Z,93.08
2018-01-16T08:23:17.865Z,93.08
2018-01-16T08:24:17.875Z,93.37
2018-01-16T08:25:17.838Z,93.18
2018-01-16T08:26:17.837Z,93.46
2018-01-16T08:27:17.847Z,92.71
2018-01-16T08:28:17.824Z,93.37
2018-01-16T08:29:17.825Z,93.37
2018-01-16T08:30:17.820Z,93.65
2018-01-16T08:31:17.792Z,93.75
2018-01-16T08:32:17.798Z,93.46
2018-01-16T08:33:17.796Z,93.65
2018-01-16T08:34:17.779Z,92.99
2018-01-16T08:35:17.774Z,92.61
2018-01-16T08:36:17.754Z,92.99
2018-01-16T08:37:18.599Z,92.23
2018-01-16T08:38:17.742Z,92.80
2018-01-16T08:39:17.761Z,93.08
2018-01-16T08:40:17.716Z,92.99
2018-01-16T08:41:18.611Z,93.75
2018-01-16T08:42:17.727Z,92.90
2018-01-16T08:43:17.694Z,92.80
2018-01-16T08:44:17.685Z,92.04
2018-01-16T08:45:17.751Z,91.80
2018-01-16T08:46:17.685Z,91.61
2018-01-16T08:47:17.655Z,92.27
2018-01-16T08:48:17.653Z,92.08
2018-01-16T08:49:17.661Z,91.61
2018-01-16T08:50:17.635Z,91.23
2018-01-16T08:51:18.683Z,91.33
2018-01-16T08:52:17.617Z,91.04
2018-01-16T08:53:17.613Z,90.66
2018-01-16T08:54:17.620Z,90.37
2018-01-16T08:55:17.592Z,90.09
2018-01-16T08:56:17.609Z,90.00
2018-01-16T08:57:17.591Z,90.19
2018-01-16T08:58:17.585Z,89.80
2018-01-16T08:59:17.558Z,89.80
2018-01-16T09:00:17.552Z,89.90
2018-01-16T09:01:17.561Z,90.00
2018-01-16T09:02:17.538Z,90.23
2018-01-16T09:03:17.540Z,89.85
2018-01-16T09:04:17.563Z,89.85
2018-01-16T09:05:17.506Z,90.14
2018-01-16T09:06:17.557Z,89.85
2018-01-16T09:07:17.498Z,89.18
2018-01-16T09:08:17.493Z,89.37
2018-01-16T09:09:17.483Z,89.47
2018-01-16T09:10:18.106Z,89.00
2018-01-16T09:11:17.477Z,88.90
2018-01-16T09:12:17.459Z,88.04
2018-01-16T09:13:17.460Z,88.23
2018-01-16T09:14:17.455Z,88.23
2018-01-16T09:15:17.433Z,87.76
2018-01-16T09:16:17.434Z,87.85
2018-01-16T09:17:17.445Z,87.76
2018-01-16T09:18:17.425Z,87.76
2018-01-16T09:19:17.460Z,87.57
2018-01-16T09:20:17.407Z,87.76
2018-01-16T09:21:17.389Z,87.19
2018-01-16T09:22:17.406Z,87.23
2018-01-16T09:23:17.372Z,86.76
2018-01-16T09:24:17.371Z,86.76
2018-01-16T09:25:17.363Z,86.66
2018-01-16T09:26:17.363Z,86.18
2018-01-16T09:27:17.341Z,85.90
2018-01-16T09:28:17.339Z,85.71
2018-01-16T09:29:17.345Z,85.80
2018-01-16T09:30:17.323Z,85.14
2018-01-16T09:31:17.350Z,84.95
2018-01-16T09:32:17.301Z,85.47
2018-01-16T09:33:17.328Z,85.90
2018-01-16T09:34:17.318Z,85.80
2018-01-16T09:35:17.286Z,85.14
2018-01-16T09:36:17.285Z,84.95
2018-01-16T09:37:17.305Z,85.14
2018-01-16T09:38:17.283Z,85.24
2018-01-16T09:39:17.271Z,84.85
2018-01-16T09:40:17.260Z,85.42
2018-01-16T09:41:17.308Z,85.52
2018-01-16T09:42:17.248Z,85.71
2018-01-16T09:43:17.243Z,85.99
2018-01-16T09:44:17.231Z,86.18
2018-01-16T09:45:17.224Z,85.99
2018-01-16T09:46:17.228Z,85.90
2018-01-16T09:47:17.204Z,86.09
2018-01-16T09:48:17.199Z,85.61
2018-01-16T09:49:17.186Z,85.90
2018-01-16T09:50:17.224Z,86.09
2018-01-16T09:51:18.129Z,86.09
2018-01-16T09:52:17.169Z,86.09
2018-01-16T09:53:17.172Z,86.57
2018-01-16T09:54:17.174Z,86.38
2018-01-16T09:55:17.147Z,86.66
2018-01-16T09:56:17.145Z,86.38
2018-01-16T09:57:17.137Z,86.57
2018-01-16T09:58:17.137Z,86.66
2018-01-16T09:59:17.133Z,86.85
2018-01-16T10:00:17.112Z,87.04
2018-01-16T10:01:17.108Z,87.04
2018-01-16T10:02:17.098Z,87.04
2018-01-16T10:03:17.102Z,86.66
2018-01-16T10:04:17.090Z,86.38
2018-01-16T10:05:17.082Z,86.47
2018-01-16T10:06:17.082Z,86.18
2018-01-16T10:07:17.071Z,85.90
2018-01-16T10:08:17.066Z,86.09
2018-01-16T10:09:17.070Z,85.90
2018-01-16T10:10:17.054Z,84.95
2018-01-16T10:11:17.054Z,84.47
2018-01-16T10:12:17.029Z,84.38
2018-01-16T10:13:17.023Z,84.00
2018-01-16T10:14:17.031Z,83.56
2018-01-16T10:15:17.008Z,82.99
2018-01-16T10:16:17.007Z,82.32
2018-01-16T10:17:17.652Z,81.47
2018-01-16T10:18:17.003Z,80.99
2018-01-16T10:19:16.982Z,80.90
2018-01-16T10:20:16.980Z,80.65
2018-01-16T10:21:16.975Z,79.99
2018-01-16T10:22:17.000Z,79.60
2018-01-16T10:23:16.958Z,79.51
2018-01-16T10:24:16.963Z,78.85
2018-01-16T10:25:16.977Z,78.75
2018-01-16T10:26:16.941Z,78.37
2018-01-16T10:27:16.937Z,78.46
2018-01-16T10:28:16.946Z,78.56
2018-01-16T10:29:16.919Z,78.37
2018-01-16T10:30:16.919Z,77.98
2018-01-16T10:31:16.936Z,77.80
2018-01-16T10:32:16.922Z,77.32
2018-01-16T10:33:16.902Z,77.32
2018-01-16T10:34:16.897Z,77.61
2018-01-16T10:35:19.644Z,77.03
2018-01-16T10:36:16.876Z,76.75
2018-01-16T10:37:16.881Z,75.99
2018-01-16T10:38:16.871Z,76.37
2018-01-16T10:39:17.656Z,76.46
2018-01-16T10:40:16.863Z,76.37
2018-01-16T10:41:16.875Z,76.56
2018-01-16T10:42:16.850Z,75.99
2018-01-16T10:43:16.852Z,75.32
2018-01-16T10:44:16.827Z,75.51
2018-01-16T10:45:16.822Z,75.04
2018-01-16T10:46:16.828Z,75.23
2018-01-16T10:47:16.844Z,75.23
2018-01-16T10:48:16.814Z,75.04
2018-01-16T10:49:16.804Z,74.94
2018-01-16T10:50:16.828Z,74.84
2018-01-16T10:51:16.798Z,75.28
2018-01-16T10:52:16.814Z,74.94
2018-01-16T10:53:16.814Z,74.80
2018-01-16T10:54:16.785Z,74.80
2018-01-16T10:55:16.764Z,74.33
2018-01-16T10:56:16.762Z,74.04
2018-01-16T10:57:16.748Z,73.47
2018-01-16T10:58:16.770Z,73.00
2018-01-16T10:59:16.770Z,72.62
2018-01-16T11:00:16.739Z,72.42
2018-01-16T11:01:16.742Z,72.62
2018-01-16T11:02:16.726Z,72.33
2018-01-16T11:03:16.724Z,73.10
2018-01-16T11:04:16.715Z,73.38
2018-01-16T11:05:16.713Z,72.81
2018-01-16T11:06:16.705Z,73.28
2018-01-16T11:07:16.693Z,73.10
2018-01-16T11:08:16.686Z,73.28
2018-01-16T11:09:17.653Z,74.14
2018-01-16T11:10:16.676Z,74.62
2018-01-16T11:11:16.662Z,74.33
2018-01-16T11:12:16.656Z,74.29
2018-01-16T11:13:16.664Z,74.48
2018-01-16T11:14:16.653Z,74.96
2018-01-16T11:15:16.642Z,75.15
2018-01-16T11:16:16.645Z,75.24
2018-01-16T11:17:16.629Z,76.20
2018-01-16T11:18:16.621Z,76.86
2018-01-16T11:19:16.617Z,77.15
2018-01-16T11:20:16.631Z,77.30
2018-01-16T11:21:16.628Z,78.44
2018-01-16T11:22:16.616Z,78.25
2018-01-16T11:23:16.590Z,79.77
2018-01-16T11:24:16.584Z,80.24
2018-01-16T11:25:16.580Z,81.29
2018-01-16T11:26:16.566Z,81.44
2018-01-16T11:27:16.560Z,82.20
2018-01-16T11:28:16.563Z,82.87
2018-01-16T11:29:16.579Z,82.96
2018-01-16T11:30:16.623Z,83.53
2018-01-16T11:31:16.565Z,83.72
2018-01-16T11:32:16.538Z,84.58
2018-01-16T11:33:16.518Z,85.11
2018-01-16T11:34:16.510Z,85.11
2018-01-16T11:35:16.509Z,85.30
2018-01-16T11:36:16.509Z,85.86
2018-01-16T11:37:16.522Z,85.49
2018-01-16T11:38:16.504Z,86.24
2018-01-16T11:39:16.480Z,85.77
2018-01-16T11:40:16.487Z,86.34
2018-01-16T11:41:16.483Z,86.72
2018-01-16T11:42:16.455Z,86.34
2018-01-16T11:43:16.480Z,86.63
2018-01-16T11:44:16.447Z,86.72
2018-01-16T11:45:19.174Z,86.34
2018-01-16T11:46:16.462Z,86.91
2018-01-16T11:47:17.222Z,86.72
2018-01-16T11:48:16.411Z,87.01
2018-01-16T11:49:16.408Z,86.91
2018-01-16T11:50:16.450Z,87.10
2018-01-16T11:51:16.412Z,87.48
2018-01-16T11:52:16.392Z,87.57
2018-01-16T11:53:16.390Z,87.38
2018-01-16T11:53:28.371Z,87.01
2018-01-16T11:55:16.350Z,86.91
2018-01-16T11:56:16.354Z,86.29
2018-01-16T11:57:16.344Z,85.34
2018-01-16T11:58:16.334Z,85.34
2018-01-16T11:59:16.324Z,84.86
2018-01-16T12:00:16.309Z,84.86
2018-01-16T12:01:16.310Z,84.77
2018-01-16T12:02:16.306Z,84.10
2018-01-16T12:03:19.197Z,84.01
2018-01-16T12:04:16.295Z,84.20
2018-01-16T12:05:17.172Z,84.39
2018-01-16T12:06:16.294Z,83.91
2018-01-16T12:07:16.252Z,83.91
2018-01-16T12:08:16.260Z,83.25
2018-01-16T12:09:16.243Z,82.87
2018-01-16T12:10:16.238Z,82.49
2018-01-16T12:11:17.182Z,81.73
2018-01-16T12:12:16.231Z,81.96
2018-01-16T12:13:16.220Z,81.20
2018-01-16T12:14:16.201Z,80.82
2018-01-16T12:15:16.194Z,80.05
2018-01-16T12:16:16.194Z,80.34
2018-01-16T12:17:16.174Z,79.33
2018-01-16T12:18:16.684Z,78.86
2018-01-16T12:19:16.162Z,78.77
2018-01-16T12:20:16.147Z,78.48
2018-01-16T12:21:16.150Z,78.77
2018-01-16T12:22:16.158Z,78.19
2018-01-16T12:23:16.124Z,78.38
2018-01-16T12:24:16.127Z,78.86
2018-01-16T12:25:16.123Z,78.48
2018-01-16T12:26:16.132Z,78.10
2018-01-16T12:27:16.122Z,78.00
2018-01-16T12:28:16.102Z,77.91
2018-01-16T12:29:16.126Z,78.10
2018-01-16T12:30:16.684Z,77.72
2018-01-16T12:31:16.080Z,77.43
2018-01-16T12:32:16.079Z,77.62
2018-01-16T12:33:18.683Z,76.39
2018-01-16T12:34:17.582Z,75.91
2018-01-16T12:35:16.288Z,76.29
2018-01-16T12:36:16.032Z,76.57
2018-01-16T12:37:16.035Z,76.57
2018-01-16T12:38:16.040Z,76.39
2018-01-16T12:39:16.035Z,76.86
2018-01-16T12:40:16.025Z,76.67
2018-01-16T12:41:15.999Z,77.15
2018-01-16T12:42:16.027Z,76.96
2018-01-16T12:43:15.993Z,77.53
2018-01-16T12:44:15.980Z,77.53
2018-01-16T12:45:16.007Z,77.72
2018-01-16T12:46:15.999Z,78.00
2018-01-16T12:47:15.982Z,78.67
2018-01-16T12:48:15.958Z,78.48
2018-01-16T12:49:15.955Z,78.82
2018-01-16T12:50:15.953Z,77.77
2018-01-16T12:51:15.948Z,78.16
2018-01-16T12:52:16.684Z,77.58
2018-01-16T12:53:15.942Z,77.39
2018-01-16T12:54:15.915Z,77.30
2018-01-16T12:55:15.921Z,77.30
2018-01-16T12:56:15.898Z,77.68
2018-01-16T12:57:15.885Z,77.87
2018-01-16T12:58:16.723Z,77.53
2018-01-16T12:59:15.899Z,77.68
2018-01-16T13:00:15.906Z,77.43
2018-01-16T13:01:16.743Z,77.72
2018-01-16T13:02:15.852Z,77.43
2018-01-16T13:03:15.873Z,77.62
2018-01-16T13:04:15.854Z,77.68
2018-01-16T13:05:15.874Z,77.58
2018-01-16T13:06:15.849Z,77.77
2018-01-16T13:07:15.853Z,77.87
2018-01-16T13:08:15.902Z,78.34
2018-01-16T13:09:15.840Z,78.16
2018-01-16T13:10:15.813Z,77.68
2018-01-16T13:11:15.810Z,77.91
2018-01-16T13:12:15.804Z,77.72